Time;durP1;ratioP1;P1;durP2;ratioP2;P2;SDS_P1;SDS_P2;PMS_P1;PMS_P2;Temp;Humidity;BMP_temperature;BMP_pressure;BME280_temperature;BME280_humidity;BME280_pressure;Samples;Min_cycle;Max_cycle;Signal;HPM_P1;HPM_P2
2021/10/22 00:00:21;;;;;;;11.63;9.87;;;7.60;99.90;;;;;;5051631;28;20460;-55
2021/10/22 00:02:48;;;;;;;12.83;10.10;;;7.60;99.90;;;;;;5051394;28;20881;-60
2021/10/22 00:05:15;;;;;;;25.87;12.17;;;7.50;99.90;;;;;;5051612;28;20448;-59
2021/10/22 00:07:42;;;;;;;11.83;9.90;;;7.50;99.90;;;;;;5051459;28;20452;-62
2021/10/22 00:10:10;;;;;;;14.10;11.97;;;7.60;99.90;;;;;;5051395;28;20464;-61
2021/10/22 00:12:37;;;;;;;10.50;9.53;;;7.50;99.90;;;;;;5051610;28;20448;-60
2021/10/22 00:15:04;;;;;;;12.93;10.70;;;7.40;99.90;;;;;;5051617;28;20451;-58
2021/10/22 00:17:32;;;;;;;12.20;9.73;;;7.40;99.90;;;;;;5051469;28;20452;-59
2021/10/22 00:19:59;;;;;;;10.80;9.70;;;7.30;99.90;;;;;;5051238;28;20471;-60
2021/10/22 00:22:26;;;;;;;13.73;10.07;;;7.30;99.90;;;;;;5051154;28;20849;-61
2021/10/22 00:24:52;;;;;;;13.00;10.40;;;7.20;99.90;;;;;;5051469;28;20451;-58
2021/10/22 00:27:19;;;;;;;15.87;10.40;;;7.10;99.90;;;;;;5051508;28;20451;-62
2021/10/22 00:29:46;;;;;;;12.23;10.43;;;7.00;99.90;;;;;;5050974;28;20480;-61
2021/10/22 00:32:13;;;;;;;12.80;11.60;;;7.00;99.90;;;;;;5051071;28;20448;-61
2021/10/22 00:34:41;;;;;;;18.57;10.20;;;7.00;99.90;;;;;;5051328;28;20432;-62
2021/10/22 00:37:08;;;;;;;16.60;9.63;;;6.90;99.90;;;;;;5051455;28;20441;-62
2021/10/22 00:39:34;;;;;;;13.00;9.07;;;7.00;99.90;;;;;;5051103;28;20472;-61
2021/10/22 00:42:03;;;;;;;12.93;9.47;;;7.10;99.90;;;;;;5050624;28;20447;-62
2021/10/22 00:44:30;;;;;;;13.27;9.20;;;7.20;99.90;;;;;;5051193;28;20491;-63
2021/10/22 00:46:57;;;;;;;10.30;8.80;;;7.20;99.90;;;;;;5051242;28;20440;-62
2021/10/22 00:49:23;;;;;;;15.60;9.60;;;7.30;99.90;;;;;;5051067;28;20444;-62
2021/10/22 00:51:51;;;;;;;12.73;9.03;;;7.30;99.90;;;;;;5051207;28;20543;-62
2021/10/22 00:54:19;;;;;;;13.60;10.13;;;7.20;99.90;;;;;;5051688;28;20440;-62
2021/10/22 00:56:50;;;;;;;11.77;10.43;;;7.10;99.90;;;;;;5053227;28;20820;-63
2021/10/22 00:59:16;;;;;;;11.80;10.60;;;7.10;99.90;;;;;;5055549;28;20462;-62
2021/10/22 01:01:43;;;;;;;12.40;9.17;;;7.10;99.90;;;;;;5055595;28;20949;-63
2021/10/22 01:04:10;;;;;;;11.67;10.57;;;7.00;99.90;;;;;;5055933;28;20510;-62
2021/10/22 01:06:37;;;;;;;13.43;9.53;;;6.90;99.90;;;;;;5056229;28;20967;-62
2021/10/22 01:09:08;;;;;;;9.73;8.83;;;6.90;99.90;;;;;;5056023;28;20444;-61
2021/10/22 01:11:35;;;;;;;11.03;10.00;;;6.80;99.90;;;;;;5055883;28;20448;-62
2021/10/22 01:14:03;;;;;;;21.80;10.23;;;6.80;99.90;;;;;;5055775;28;20569;-62
2021/10/22 01:16:29;;;;;;;10.23;9.33;;;6.80;99.90;;;;;;5055966;28;20444;-62
2021/10/22 01:18:56;;;;;;;10.20;8.77;;;6.80;99.90;;;;;;5055700;28;20447;-63
2021/10/22 01:21:24;;;;;;;11.67;9.47;;;6.80;99.90;;;;;;5055188;28;20468;-63
2021/10/22 01:23:51;;;;;;;11.70;9.90;;;6.80;99.90;;;;;;5055600;28;20491;-62
2021/10/22 01:26:19;;;;;;;12.50;9.77;;;6.80;99.90;;;;;;5055751;28;20444;-63
2021/10/22 01:28:46;;;;;;;10.47;9.27;;;6.90;99.90;;;;;;5055383;28;20926;-64
2021/10/22 01:31:13;;;;;;;11.83;9.83;;;6.80;99.90;;;;;;5054964;28;20479;-63
2021/10/22 01:33:41;;;;;;;10.23;9.23;;;6.80;99.90;;;;;;5055120;28;20447;-63
2021/10/22 01:36:08;;;;;;;11.43;9.83;;;6.90;99.90;;;;;;5055060;28;20484;-63
2021/10/22 01:38:36;;;;;;;12.77;9.20;;;6.90;99.90;;;;;;5054551;28;20444;-63
2021/10/22 01:41:04;;;;;;;11.30;10.10;;;6.80;99.90;;;;;;5054137;28;20471;-63
2021/10/22 01:43:31;;;;;;;10.60;9.67;;;6.90;99.90;;;;;;5054269;28;20488;-63
2021/10/22 01:45:57;;;;;;;14.40;9.73;;;6.80;99.90;;;;;;5054343;28;20488;-62
2021/10/22 01:48:24;;;;;;;10.97;10.07;;;6.70;99.90;;;;;;5054664;28;20443;-64
2021/10/22 01:50:51;;;;;;;19.67;10.90;;;6.70;99.90;;;;;;5054086;28;20518;-64
2021/10/22 01:53:19;;;;;;;13.30;9.33;;;6.70;99.90;;;;;;5054342;28;20440;-62
2021/10/22 01:55:47;;;;;;;12.83;10.13;;;6.70;99.90;;;;;;5054196;28;20451;-64
2021/10/22 01:58:14;;;;;;;10.33;9.30;;;6.70;99.90;;;;;;5054479;28;20475;-63
2021/10/22 02:00:40;;;;;;;12.53;11.07;;;6.60;99.90;;;;;;5054072;28;20464;-63
2021/10/22 02:03:07;;;;;;;14.57;10.50;;;6.60;99.90;;;;;;5053961;28;20467;-63
2021/10/22 02:05:34;;;;;;;12.50;9.57;;;6.60;99.90;;;;;;5054024;28;20448;-63
2021/10/22 02:08:01;;;;;;;11.73;10.53;;;6.60;99.90;;;;;;5052922;28;20444;-64
2021/10/22 02:10:28;;;;;;;22.50;11.37;;;6.60;99.90;;;;;;5053830;28;20833;-63
2021/10/22 02:12:56;;;;;;;12.03;10.53;;;6.50;99.90;;;;;;5054139;28;20451;-63
2021/10/22 02:15:23;;;;;;;12.93;10.43;;;6.50;99.90;;;;;;5054099;28;20444;-63
2021/10/22 02:17:50;;;;;;;17.53;10.97;;;6.50;99.90;;;;;;5053889;28;20448;-64
2021/10/22 02:20:17;;;;;;;13.00;10.40;;;6.40;99.90;;;;;;5054144;28;20524;-62
2021/10/22 02:22:43;;;;;;;12.00;10.53;;;6.40;99.90;;;;;;5054023;28;20821;-63
2021/10/22 02:25:10;;;;;;;15.10;10.90;;;6.40;99.90;;;;;;5054155;28;20484;-61
2021/10/22 02:27:37;;;;;;;12.43;10.53;;;6.40;99.90;;;;;;5053793;28;20440;-64
2021/10/22 02:30:06;;;;;;;14.10;10.33;;;6.30;99.90;;;;;;5053599;28;20483;-63
2021/10/22 02:32:33;;;;;;;16.17;10.13;;;6.30;99.90;;;;;;5053883;28;20444;-64
2021/10/22 02:35:00;;;;;;;18.37;10.70;;;6.30;99.90;;;;;;5053927;28;20794;-61
2021/10/22 02:37:27;;;;;;;13.70;10.30;;;6.30;99.90;;;;;;5053759;28;20807;-60
2021/10/22 02:39:53;;;;;;;15.93;10.70;;;6.30;99.90;;;;;;5054291;28;20464;-64
2021/10/22 02:42:20;;;;;;;19.70;11.10;;;6.40;99.90;;;;;;5054746;28;20809;-63
2021/10/22 02:44:47;;;;;;;16.60;12.60;;;6.40;99.90;;;;;;5053658;28;20484;-64
2021/10/22 02:47:15;;;;;;;18.00;11.13;;;6.30;99.90;;;;;;5053324;28;20474;-62
2021/10/22 02:49:42;;;;;;;12.60;10.50;;;6.30;99.90;;;;;;5052903;28;20537;-64
2021/10/22 02:52:08;;;;;;;13.17;11.67;;;6.30;99.90;;;;;;5052998;28;20448;-64
2021/10/22 02:54:35;;;;;;;14.80;11.00;;;6.30;99.90;;;;;;5053140;28;20440;-63
2021/10/22 02:57:02;;;;;;;16.47;11.80;;;6.30;99.90;;;;;;5052947;28;20444;-64
2021/10/22 02:59:28;;;;;;;14.70;11.70;;;6.30;99.90;;;;;;5053048;28;20852;-64
2021/10/22 03:01:55;;;;;;;14.50;10.97;;;6.20;99.90;;;;;;5053324;28;20451;-64
2021/10/22 03:04:23;;;;;;;11.83;10.77;;;6.20;99.90;;;;;;5053044;28;20484;-63
2021/10/22 03:06:50;;;;;;;15.90;11.80;;;6.20;99.90;;;;;;5052707;28;20941;-62
2021/10/22 03:09:16;;;;;;;13.13;11.83;;;6.20;99.90;;;;;;5052894;28;20444;-63
2021/10/22 03:11:43;;;;;;;13.57;12.23;;;6.20;99.90;;;;;;5053001;28;20445;-64
2021/10/22 03:14:10;;;;;;;12.33;11.23;;;6.10;99.90;;;;;;5052997;28;20443;-63
2021/10/22 03:16:36;;;;;;;15.27;12.80;;;6.10;99.90;;;;;;5052880;28;20452;-63
2021/10/22 03:19:03;;;;;;;14.30;12.80;;;6.10;99.90;;;;;;5052342;28;20448;-63
2021/10/22 03:21:31;;;;;;;11.97;10.87;;;6.10;99.90;;;;;;5053163;28;20973;-64
2021/10/22 03:23:58;;;;;;;12.97;11.63;;;6.00;99.90;;;;;;5053023;28;20480;-63
2021/10/22 03:26:25;;;;;;;13.90;12.10;;;6.00;99.90;;;;;;5052750;28;20451;-63
2021/10/22 03:28:51;;;;;;;14.73;12.60;;;6.00;99.90;;;;;;5052770;28;20448;-63
2021/10/22 03:31:18;;;;;;;23.67;12.90;;;6.00;99.90;;;;;;5052472;28;20476;-63
2021/10/22 03:33:45;;;;;;;13.30;11.97;;;6.00;99.90;;;;;;5052371;28;20451;-63
2021/10/22 03:36:12;;;;;;;13.67;11.97;;;6.00;99.90;;;;;;5052662;28;20448;-63
2021/10/22 03:38:40;;;;;;;11.63;10.90;;;6.00;99.90;;;;;;5052470;28;20460;-63
2021/10/22 03:41:07;;;;;;;13.87;12.43;;;5.90;99.90;;;;;;5052989;28;20460;-63
2021/10/22 03:43:35;;;;;;;13.97;12.80;;;5.90;99.90;;;;;;5051899;28;20440;-63
2021/10/22 03:46:02;;;;;;;14.23;12.83;;;5.90;99.90;;;;;;5051726;28;20865;-63
2021/10/22 03:48:28;;;;;;;13.27;12.13;;;6.00;99.90;;;;;;5051690;28;20476;-64
2021/10/22 03:50:55;;;;;;;18.67;12.73;;;6.00;99.90;;;;;;5051841;28;20494;-62
2021/10/22 03:53:22;;;;;;;16.93;13.00;;;6.00;99.90;;;;;;5051762;28;20451;-63
2021/10/22 03:55:50;;;;;;;13.40;12.30;;;6.00;99.90;;;;;;5051552;28;20440;-63
2021/10/22 03:58:18;;;;;;;15.37;13.90;;;6.00;99.90;;;;;;5051605;28;20455;-63
2021/10/22 04:00:45;;;;;;;14.23;13.20;;;5.90;99.90;;;;;;5051483;28;20468;-64
2021/10/22 04:03:11;;;;;;;14.13;13.13;;;5.90;99.90;;;;;;5051319;28;20459;-61
2021/10/22 04:05:38;;;;;;;14.43;13.33;;;5.90;99.90;;;;;;5051254;28;20479;-62
2021/10/22 04:08:05;;;;;;;15.80;13.63;;;5.90;99.90;;;;;;5051365;28;20929;-62
2021/10/22 04:10:32;;;;;;;14.60;13.20;;;5.90;99.90;;;;;;5051347;28;20471;-61
2021/10/22 04:13:01;;;;;;;19.57;15.47;;;5.90;99.90;;;;;;5051444;28;20802;-62
2021/10/22 04:15:28;;;;;;;17.60;13.20;;;5.90;99.90;;;;;;5050980;28;20825;-61
2021/10/22 04:17:55;;;;;;;16.77;13.77;;;6.00;99.90;;;;;;5051656;28;21220;-61
2021/10/22 04:20:21;;;;;;;18.40;15.13;;;6.00;99.90;;;;;;5051548;28;20465;-62
2021/10/22 04:22:48;;;;;;;14.93;13.70;;;6.00;99.90;;;;;;5051401;28;20440;-63
2021/10/22 04:25:15;;;;;;;14.60;13.40;;;5.90;99.90;;;;;;5050921;28;20506;-63
2021/10/22 04:27:41;;;;;;;14.93;13.63;;;5.90;99.90;;;;;;5051421;28;20455;-62
2021/10/22 04:30:11;;;;;;;15.00;13.63;;;5.90;99.90;;;;;;5068959;22;20488;-63
2021/10/22 04:32:38;;;;;;;16.07;14.50;;;5.90;99.90;;;;;;5043251;28;20461;-62
2021/10/22 04:35:05;;;;;;;16.57;13.50;;;5.90;99.90;;;;;;5057429;28;20440;-62
2021/10/22 04:37:33;;;;;;;14.90;14.00;;;5.90;99.90;;;;;;5044291;28;20449;-62
2021/10/22 04:42:48;;;;;;;16.60;14.47;;;5.90;99.90;;;;;;5037679;28;20533;-63
2021/10/22 04:45:18;;;;;;;15.17;13.63;;;5.90;99.90;;;;;;5038679;28;20487;-63
2021/10/22 04:47:45;;;;;;;15.40;14.17;;;5.90;99.90;;;;;;5040204;28;20484;-65
2021/10/22 04:50:12;;;;;;;15.30;13.90;;;6.00;99.90;;;;;;5039967;28;20472;-63
2021/10/22 04:52:39;;;;;;;15.63;14.40;;;6.00;99.90;;;;;;5039381;28;20453;-63
2021/10/22 04:55:08;;;;;;;14.93;13.90;;;6.00;99.90;;;;;;5038311;28;20958;-63
2021/10/22 04:57:35;;;;;;;18.30;14.63;;;6.00;99.90;;;;;;5035111;28;20449;-62
2021/10/22 05:00:01;;;;;;;16.17;14.77;;;6.00;99.90;;;;;;5034203;28;20476;-65
2021/10/22 05:02:29;;;;;;;15.97;14.80;;;6.00;99.90;;;;;;5034243;28;20445;-64
2021/10/22 05:04:56;;;;;;;16.00;14.50;;;6.00;99.90;;;;;;5034050;28;20484;-64
2021/10/22 05:07:23;;;;;;;15.90;14.30;;;6.00;99.90;;;;;;5034338;28;20449;-64
2021/10/22 05:09:49;;;;;;;18.10;16.27;;;6.00;99.90;;;;;;5034180;28;20468;-64
2021/10/22 05:12:16;;;;;;;17.83;14.03;;;6.00;99.90;;;;;;5034417;28;20444;-64
2021/10/22 05:14:43;;;;;;;16.10;14.40;;;6.10;99.90;;;;;;5034503;28;20802;-65
2021/10/22 05:17:09;;;;;;;15.77;14.57;;;6.00;99.90;;;;;;5034959;28;20449;-65
2021/10/22 05:19:38;;;;;;;16.40;15.13;;;6.10;99.90;;;;;;5035125;28;20451;-65
2021/10/22 05:22:04;;;;;;;15.67;14.30;;;6.10;99.90;;;;;;5035903;28;20441;-65
2021/10/22 05:24:31;;;;;;;19.93;16.27;;;6.10;99.90;;;;;;5035599;28;20484;-65
2021/10/22 05:26:58;;;;;;;17.03;15.27;;;6.10;99.90;;;;;;5036181;28;20475;-65
2021/10/22 05:29:24;;;;;;;15.90;14.60;;;6.00;99.90;;;;;;5034671;28;20781;-65
2021/10/22 05:31:51;;;;;;;19.43;14.90;;;5.90;99.90;;;;;;5017281;28;1075439;-65
2021/10/22 05:34:20;;;;;;;16.93;15.23;;;6.00;99.90;;;;;;5056371;28;20202;-64
2021/10/22 05:36:48;;;;;;;15.67;14.47;;;6.00;99.90;;;;;;5056211;28;20618;-65
2021/10/22 05:39:16;;;;;;;15.23;14.20;;;6.00;99.90;;;;;;5056255;28;20821;-65
2021/10/22 05:41:43;;;;;;;15.70;14.40;;;6.00;99.90;;;;;;5055967;28;20468;-65
2021/10/22 05:44:10;;;;;;;16.83;15.10;;;6.10;99.90;;;;;;5055459;28;20452;-65
2021/10/22 05:46:37;;;;;;;18.50;14.73;;;6.10;99.90;;;;;;5055884;28;20448;-65
2021/10/22 05:49:04;;;;;;;18.97;17.57;;;6.00;99.90;;;;;;5056247;28;20451;-65
2021/10/22 05:51:31;;;;;;;15.73;14.63;;;6.00;99.90;;;;;;5056428;28;20921;-64
2021/10/22 05:53:59;;;;;;;15.77;14.67;;;6.00;99.90;;;;;;5055953;28;20451;-65
2021/10/22 05:56:26;;;;;;;18.00;16.27;;;6.00;99.90;;;;;;5056038;28;20949;-65
2021/10/22 05:58:52;;;;;;;16.33;14.90;;;6.10;99.90;;;;;;5055447;28;20444;-64
2021/10/22 06:01:19;;;;;;;16.77;15.40;;;6.10;99.90;;;;;;5056648;28;20476;-65
2021/10/22 06:03:46;;;;;;;15.77;14.67;;;6.10;99.90;;;;;;5056437;28;20440;-65
2021/10/22 06:06:12;;;;;;;15.47;14.20;;;6.10;99.90;;;;;;5056337;28;20488;-64
2021/10/22 06:08:39;;;;;;;15.20;14.20;;;6.20;99.90;;;;;;5056602;28;20444;-65
2021/10/22 06:11:11;;;;;;;15.70;14.37;;;6.10;99.90;;;;;;5056907;28;20985;-65
2021/10/22 06:13:37;;;;;;;15.93;14.30;;;6.10;99.90;;;;;;5057737;28;20506;-65
2021/10/22 06:16:05;;;;;;;15.90;14.63;;;6.10;99.90;;;;;;5056013;28;20444;-65
2021/10/22 06:18:32;;;;;;;15.63;14.53;;;6.10;99.90;;;;;;5055331;28;20452;-64
2021/10/22 06:21:03;;;;;;;16.23;15.10;;;6.20;99.90;;;;;;5055741;28;20500;-65
2021/10/22 06:26:16;;;;;;;17.37;15.63;;;6.20;99.90;;;;;;5056544;28;20541;-65
2021/10/22 06:28:42;;;;;;;16.50;15.20;;;6.30;99.90;;;;;;5056411;28;20440;-65
2021/10/22 06:31:11;;;;;;;15.93;14.77;;;6.30;99.90;;;;;;5056474;28;20476;-65
2021/10/22 06:33:38;;;;;;;16.97;15.73;;;6.40;99.90;;;;;;5056213;28;20480;-64
2021/10/22 06:36:05;;;;;;;16.80;15.20;;;6.40;99.90;;;;;;5056402;28;20511;-64
2021/10/22 06:38:32;;;;;;;15.60;14.40;;;6.40;99.90;;;;;;5055979;28;20492;-64
2021/10/22 06:40:58;;;;;;;15.67;14.50;;;6.40;99.90;;;;;;5056090;28;20475;-65
2021/10/22 06:43:27;;;;;;;15.33;14.30;;;6.40;99.90;;;;;;5055817;28;20523;-65
2021/10/22 06:45:54;;;;;;;16.10;14.70;;;6.50;99.90;;;;;;5056141;28;20488;-64
2021/10/22 06:48:21;;;;;;;16.73;15.00;;;6.60;99.90;;;;;;5057863;28;20456;-65
2021/10/22 06:50:48;;;;;;;16.03;14.93;;;6.70;99.90;;;;;;5057692;28;20837;-64
2021/10/22 06:53:15;;;;;;;15.50;14.63;;;6.70;99.90;;;;;;5055581;28;20972;-64
2021/10/22 06:55:42;;;;;;;16.83;15.83;;;6.80;99.90;;;;;;5054306;28;20444;-65
2021/10/22 06:58:09;;;;;;;15.50;14.33;;;6.80;99.90;;;;;;5054971;28;20447;-65
2021/10/22 07:00:37;;;;;;;15.60;14.80;;;6.90;99.90;;;;;;5054792;28;20534;-65
2021/10/22 07:03:04;;;;;;;15.13;14.20;;;7.00;99.90;;;;;;5055158;28;20913;-64
2021/10/22 07:05:51;;;;;;;16.30;14.97;;;7.00;99.90;;;;;;5055174;28;20844;-65
2021/10/22 07:08:17;;;;;;;15.20;14.33;;;7.10;99.90;;;;;;5054480;28;20543;-65
2021/10/22 07:10:43;;;;;;;16.90;15.13;;;7.20;99.90;;;;;;5054270;28;20550;-65
2021/10/22 07:13:10;;;;;;;16.70;15.50;;;7.20;99.90;;;;;;5054289;28;20202;-64
2021/10/22 07:15:39;;;;;;;17.13;15.53;;;7.30;99.90;;;;;;5054941;28;20440;-65
2021/10/22 07:18:05;;;;;;;15.53;14.63;;;7.30;99.90;;;;;;5055136;28;20452;-63
2021/10/22 07:20:33;;;;;;;17.57;16.10;;;7.40;99.90;;;;;;5056040;28;20471;-63
2021/10/22 07:23:04;;;;;;;16.07;15.03;;;7.40;99.90;;;;;;5056409;28;20456;-65
2021/10/22 07:25:32;;;;;;;17.57;15.83;;;7.50;99.90;;;;;;5056832;28;20490;-63
2021/10/22 07:28:05;;;;;;;15.77;14.70;;;7.60;99.90;;;;;;5057117;28;20440;-63
2021/10/22 07:30:33;;;;;;;16.10;14.93;;;7.80;99.90;;;;;;5056828;28;20494;-63
2021/10/22 07:33:01;;;;;;;15.90;14.80;;;8.00;99.90;;;;;;5057453;28;20786;-63
2021/10/22 07:35:27;;;;;;;18.00;16.70;;;8.00;99.90;;;;;;5057750;28;20455;-63
2021/10/22 07:37:54;;;;;;;16.17;15.47;;;7.90;99.90;;;;;;5056607;28;20448;-63
2021/10/22 07:40:21;;;;;;;16.30;15.70;;;7.90;99.90;;;;;;5056492;28;20526;-63
2021/10/22 07:42:48;;;;;;;17.67;15.87;;;8.00;99.90;;;;;;5057015;28;20451;-63
2021/10/22 07:45:15;;;;;;;16.57;15.10;;;8.30;99.90;;;;;;5056351;28;20480;-63
2021/10/22 07:47:41;;;;;;;15.93;14.70;;;8.40;99.90;;;;;;5056478;28;20456;-62
2021/10/22 07:50:10;;;;;;;16.57;15.60;;;8.40;99.90;;;;;;5056611;28;20460;-63
2021/10/22 07:52:37;;;;;;;18.83;15.40;;;8.30;99.90;;;;;;5056277;28;20451;-63
2021/10/22 07:55:05;;;;;;;16.50;15.40;;;8.30;99.90;;;;;;5056485;28;20480;-63
2021/10/22 07:57:33;;;;;;;16.00;15.10;;;8.30;99.90;;;;;;5056311;28;20444;-63
2021/10/22 08:00:00;;;;;;;17.07;15.97;;;8.40;99.90;;;;;;5055832;28;20468;-63
2021/10/22 08:02:27;;;;;;;16.00;14.90;;;8.50;99.90;;;;;;5055272;28;20451;-63
2021/10/22 08:04:55;;;;;;;16.23;15.10;;;8.40;99.90;;;;;;5055123;28;20452;-63
2021/10/22 08:07:29;;;;;;;16.60;15.17;;;8.30;99.90;;;;;;5055518;28;20439;-63
2021/10/22 08:09:56;;;;;;;16.20;15.13;;;8.40;99.90;;;;;;5054506;28;20568;-63
2021/10/22 08:12:24;;;;;;;16.67;15.47;;;8.50;99.90;;;;;;5056339;28;20803;-63
2021/10/22 08:14:50;;;;;;;15.73;15.03;;;8.70;99.90;;;;;;5056563;28;20526;-63
2021/10/22 08:17:18;;;;;;;17.37;16.40;;;8.80;99.90;;;;;;5055665;28;20951;-63
2021/10/22 08:19:50;;;;;;;17.17;15.90;;;9.00;99.90;;;;;;5055007;28;20507;-63
2021/10/22 08:22:27;;;;;;;16.17;15.43;;;9.20;99.90;;;;;;5054688;28;20464;-63
2021/10/22 08:24:59;;;;;;;16.63;15.63;;;9.50;99.90;;;;;;5055336;28;20454;-63
2021/10/22 08:27:27;;;;;;;17.20;16.30;;;9.70;99.90;;;;;;5055976;28;20438;-63
2021/10/22 08:29:54;;;;;;;17.47;16.00;;;9.90;99.90;;;;;;5055081;28;20566;-63
2021/10/22 08:32:20;;;;;;;16.83;16.10;;;10.10;99.90;;;;;;5056051;28;20832;-63
2021/10/22 08:34:47;;;;;;;16.73;15.73;;;10.20;99.90;;;;;;5055932;28;20444;-63
2021/10/22 08:37:14;;;;;;;17.07;16.17;;;10.30;99.90;;;;;;5054778;28;20440;-63
2021/10/22 08:39:45;;;;;;;17.77;16.77;;;10.40;99.90;;;;;;5053946;28;20467;-62
2021/10/22 08:42:20;;;;;;;17.00;16.10;;;10.50;99.90;;;;;;5056064;28;20812;-63
2021/10/22 08:44:47;;;;;;;17.40;16.40;;;10.70;99.90;;;;;;5055131;28;20447;-63
2021/10/22 08:47:13;;;;;;;17.57;16.47;;;10.70;99.90;;;;;;5057014;28;20506;-63
2021/10/22 08:49:40;;;;;;;18.37;17.30;;;10.60;99.90;;;;;;5055573;28;20444;-63
2021/10/22 08:52:08;;;;;;;17.70;16.70;;;10.70;99.90;;;;;;5055306;28;20455;-63
2021/10/22 08:54:36;;;;;;;16.77;16.00;;;10.60;99.90;;;;;;5054398;28;20471;-63
2021/10/22 08:57:04;;;;;;;19.00;17.43;;;10.70;99.90;;;;;;5054528;28;20516;-62
2021/10/22 08:59:32;;;;;;;18.00;16.80;;;10.80;99.90;;;;;;5054666;28;20456;-63
2021/10/22 09:02:17;;;;;;;17.10;16.10;;;10.80;99.90;;;;;;5054548;28;20445;-63
2021/10/22 09:04:45;;;;;;;17.63;16.50;;;10.90;99.90;;;;;;5053935;28;20544;-63
2021/10/22 09:07:13;;;;;;;18.60;17.30;;;11.00;99.90;;;;;;5054433;28;20484;-61
2021/10/22 09:09:40;;;;;;;17.43;16.60;;;11.10;99.90;;;;;;5053670;28;20486;-63
2021/10/22 09:12:07;;;;;;;17.27;16.43;;;11.30;99.90;;;;;;5054569;28;20876;-63
2021/10/22 09:14:36;;;;;;;17.63;16.80;;;11.30;99.90;;;;;;5053654;28;20448;-63
2021/10/22 09:17:11;;;;;;;19.00;17.87;;;11.30;99.90;;;;;;5055464;28;20513;-63
2021/10/22 09:19:41;;;;;;;17.50;16.70;;;11.40;99.90;;;;;;5058604;28;20491;-61
2021/10/22 09:22:23;;;;;;;17.63;16.73;;;11.30;99.90;;;;;;5059427;28;20963;-63
2021/10/22 09:24:51;;;;;;;17.97;17.07;;;11.40;99.90;;;;;;5060160;28;21130;-63
2021/10/22 09:27:33;;;;;;;18.83;17.43;;;11.50;99.90;;;;;;5059847;28;20842;-63
2021/10/22 09:30:01;;;;;;;17.90;17.20;;;11.40;99.90;;;;;;5059448;28;20468;-63
2021/10/22 09:32:31;;;;;;;19.37;17.63;;;11.30;99.90;;;;;;5059520;28;20440;-63
2021/10/22 09:34:57;;;;;;;16.90;16.30;;;11.00;99.90;;;;;;5058080;28;20867;-63
2021/10/22 09:37:24;;;;;;;18.80;17.60;;;10.90;99.90;;;;;;5058608;28;20448;-63
2021/10/22 09:39:51;;;;;;;17.77;16.60;;;10.90;99.90;;;;;;5058567;28;20478;-63
2021/10/22 09:42:19;;;;;;;18.67;17.40;;;11.10;99.90;;;;;;5058569;28;20436;-63
2021/10/22 09:44:47;;;;;;;18.33;17.43;;;11.50;99.90;;;;;;5059316;28;20455;-63
2021/10/22 09:47:18;;;;;;;19.30;18.10;;;12.10;99.90;;;;;;5059362;28;20959;-63
2021/10/22 09:49:47;;;;;;;18.70;17.30;;;12.00;99.90;;;;;;5059401;28;20474;-62
2021/10/22 09:52:15;;;;;;;17.80;16.90;;;11.90;99.90;;;;;;5059685;28;20459;-63
2021/10/22 09:54:42;;;;;;;18.73;17.73;;;11.60;99.90;;;;;;5059867;28;20513;-63
2021/10/22 09:57:08;;;;;;;18.17;17.03;;;11.50;99.90;;;;;;5059528;28;20952;-63
2021/10/22 09:59:36;;;;;;;17.60;16.80;;;11.50;99.90;;;;;;5057727;28;20470;-63
2021/10/22 10:02:07;;;;;;;18.27;16.97;;;11.50;99.90;;;;;;5059520;28;20448;-63
2021/10/22 10:04:36;;;;;;;18.73;17.80;;;11.50;99.90;;;;;;5059415;28;20444;-63
2021/10/22 10:07:04;;;;;;;18.50;17.30;;;11.60;99.90;;;;;;5059381;28;20475;-63
2021/10/22 10:09:32;;;;;;;17.70;16.80;;;11.60;99.90;;;;;;5059710;28;20817;-62
2021/10/22 10:12:01;;;;;;;18.27;17.17;;;11.90;99.90;;;;;;5059642;28;20451;-63
2021/10/22 10:14:30;;;;;;;18.70;17.43;;;12.00;99.90;;;;;;5059500;28;20459;-63
2021/10/22 10:16:58;;;;;;;17.97;16.77;;;12.10;99.90;;;;;;5057429;28;20479;-63
2021/10/22 10:19:27;;;;;;;18.87;17.70;;;12.40;99.90;;;;;;5057424;28;20929;-63
2021/10/22 10:21:59;;;;;;;18.10;16.83;;;12.50;99.90;;;;;;5056899;28;20444;-63
2021/10/22 10:24:31;;;;;;;18.80;17.80;;;12.60;99.90;;;;;;5056720;28;20464;-63
2021/10/22 10:27:03;;;;;;;17.67;16.67;;;12.80;99.90;;;;;;5057194;28;20531;-63
2021/10/22 10:29:33;;;;;;;19.40;18.20;;;13.20;99.90;;;;;;5055358;28;20440;-61
2021/10/22 10:32:02;;;;;;;18.10;17.30;;;13.30;99.90;;;;;;5054117;28;20447;-64
2021/10/22 10:34:43;;;;;;;19.70;18.43;;;13.70;99.90;;;;;;5053276;28;20440;-63
2021/10/22 10:37:31;;;;;;;19.20;18.10;;;14.10;99.90;;;;;;5053226;28;20507;-63
2021/10/22 10:40:13;;;;;;;19.50;18.47;;;14.00;99.90;;;;;;5052710;28;20830;-63
2021/10/22 10:42:45;;;;;;;20.67;18.80;;;13.80;99.90;;;;;;5053268;28;20736;-63
2021/10/22 10:45:43;;;;;;;18.57;17.57;;;14.00;99.90;;;;;;5053053;28;20440;-64
2021/10/22 10:48:18;;;;;;;19.83;18.87;;;14.40;99.90;;;;;;4991330;28;20445;-64
2021/10/22 10:50:50;;;;;;;19.40;18.50;;;14.90;99.90;;;;;;5042019;28;20486;-63
2021/10/22 10:53:30;;;;;;;20.23;19.27;;;15.10;99.90;;;;;;5052797;28;20476;-62
2021/10/22 10:55:58;;;;;;;20.43;19.17;;;15.00;99.90;;;;;;5052909;28;20964;-62
2021/10/22 10:58:25;;;;;;;19.87;18.83;;;15.20;99.90;;;;;;5052498;28;20467;-64
2021/10/22 11:00:54;;;;;;;19.33;18.43;;;15.20;99.90;;;;;;5052711;28;20464;-62
2021/10/22 11:03:23;;;;;;;20.90;19.20;;;15.30;99.50;;;;;;5052667;28;20783;-62
2021/10/22 11:06:03;;;;;;;20.27;18.80;;;15.40;99.40;;;;;;5052481;28;20456;-62
2021/10/22 11:08:43;;;;;;;20.27;18.63;;;14.90;99.90;;;;;;5052296;28;20944;-62
2021/10/22 11:11:32;;;;;;;19.70;18.80;;;14.50;99.90;;;;;;5052483;28;20900;-62
2021/10/22 11:14:11;;;;;;;19.70;18.67;;;15.40;99.60;;;;;;5052402;28;20539;-63
2021/10/22 11:16:44;;;;;;;19.80;18.83;;;15.90;97.80;;;;;;5052339;28;20447;-62
2021/10/22 11:19:12;;;;;;;19.33;18.47;;;16.80;96.20;;;;;;5052281;28;20811;-63
2021/10/22 11:21:43;;;;;;;20.50;19.07;;;17.50;93.00;;;;;;5052197;28;20460;-63
2021/10/22 11:24:15;;;;;;;20.53;19.40;;;18.60;89.50;;;;;;5052380;28;20533;-63
2021/10/22 11:26:42;;;;;;;21.10;19.90;;;20.00;81.10;;;;;;5052072;28;20472;-62
2021/10/22 11:29:16;;;;;;;20.03;19.00;;;20.80;73.40;;;;;;5052042;28;20440;-63
2021/10/22 11:31:45;;;;;;;21.77;20.60;;;21.30;65.40;;;;;;5051858;28;20487;-63
2021/10/22 11:34:18;;;;;;;21.73;20.50;;;21.30;59.90;;;;;;5052148;28;20860;-63
2021/10/22 11:36:51;;;;;;;21.83;20.63;;;20.50;59.90;;;;;;5051900;28;20540;-63
2021/10/22 11:39:22;;;;;;;21.67;20.43;;;18.40;64.90;;;;;;5051893;28;20805;-62
2021/10/22 11:42:03;;;;;;;20.20;19.10;;;17.40;69.20;;;;;;5051705;28;20503;-62
2021/10/22 11:44:29;;;;;;;21.47;20.20;;;16.90;73.80;;;;;;5051955;28;20451;-63
2021/10/22 11:46:57;;;;;;;21.03;19.53;;;16.10;77.90;;;;;;5051607;28;20476;-63
2021/10/22 11:49:27;;;;;;;21.67;20.30;;;15.50;84.30;;;;;;5051596;28;20453;-63
2021/10/22 11:51:56;;;;;;;19.90;18.90;;;15.50;88.00;;;;;;5051668;28;20464;-62
2021/10/22 11:54:33;;;;;;;21.70;20.57;;;15.40;90.80;;;;;;5051776;28;20817;-63
2021/10/22 11:57:00;;;;;;;20.37;19.10;;;15.60;92.10;;;;;;5051717;28;21125;-62
2021/10/22 11:59:27;;;;;;;21.70;20.47;;;15.90;91.90;;;;;;5051513;28;20451;-62
2021/10/22 12:02:03;;;;;;;18.70;18.00;;;15.70;90.10;;;;;;5051467;28;20468;-63
2021/10/22 12:04:30;;;;;;;19.93;18.73;;;15.90;90.00;;;;;;5051685;28;20448;-63
2021/10/22 12:07:04;;;;;;;19.27;18.23;;;15.30;90.10;;;;;;5051507;28;20530;-63
2021/10/22 12:09:35;;;;;;;19.57;18.37;;;14.70;91.30;;;;;;5051357;28;20440;-63
2021/10/22 12:12:04;;;;;;;19.50;18.23;;;14.20;93.50;;;;;;5051599;28;20436;-62
2021/10/22 12:14:34;;;;;;;20.10;18.70;;;14.20;95.20;;;;;;5051571;28;20869;-63
2021/10/22 12:17:01;;;;;;;18.50;17.70;;;14.20;95.60;;;;;;5051397;28;20468;-62
2021/10/22 12:19:28;;;;;;;19.07;18.00;;;14.40;96.60;;;;;;5051325;28;20847;-63
2021/10/22 12:21:55;;;;;;;18.60;17.57;;;14.40;96.20;;;;;;5051346;28;20962;-62
2021/10/22 12:24:22;;;;;;;19.80;18.70;;;14.30;96.50;;;;;;5051577;28;20471;-62
2021/10/22 12:27:04;;;;;;;19.20;18.20;;;14.50;96.60;;;;;;5051202;28;20479;-63
2021/10/22 12:29:52;;;;;;;18.20;17.40;;;14.70;96.20;;;;;;5050975;28;20448;-63
2021/10/22 12:32:33;;;;;;;18.87;17.77;;;14.70;96.10;;;;;;5051223;28;20451;-63
2021/10/22 12:35:01;;;;;;;18.40;17.70;;;15.00;95.90;;;;;;5051262;28;20959;-62
2021/10/22 12:37:37;;;;;;;19.70;18.63;;;15.10;94.70;;;;;;5051373;28;20436;-63
2021/10/22 12:40:19;;;;;;;20.10;18.67;;;15.00;94.30;;;;;;5050940;28;20464;-62
2021/10/22 12:43:02;;;;;;;19.80;18.30;;;14.50;95.90;;;;;;5051325;28;20440;-64
2021/10/22 12:45:29;;;;;;;27.70;20.20;;;14.30;97.20;;;;;;5051160;28;20451;-63
2021/10/22 12:47:57;;;;;;;19.40;18.20;;;14.00;97.90;;;;;;5051143;28;20502;-63